sensor_id;sensor_type;location;lat;lon;timestamp;P1;durP1;ratioP1;P2;durP2;ratioP2
66425;SDS011;53237;46.158;14.604;2022-08-01T00:01:06;1.48;;;1.38;;
66425;SDS011;53237;46.158;14.604;2022-08-01T00:03:32;2.00;;;1.70;;
66425;SDS011;53237;46.158;14.604;2022-08-01T00:05:57;1.33;;;1.23;;
66425;SDS011;53237;46.158;14.604;2022-08-01T00:08:23;1.38;;;1.27;;
66425;SDS011;53237;46.158;14.604;2022-08-01T00:10:49;1.58;;;1.40;;
66425;SDS011;53237;46.158;14.604;2022-08-01T00:13:15;1.80;;;1.48;;
66425;SDS011;53237;46.158;14.604;2022-08-01T00:15:41;1.63;;;1.50;;
66425;SDS011;53237;46.158;14.604;2022-08-01T00:18:07;1.40;;;1.27;;
66425;SDS011;53237;46.158;14.604;2022-08-01T00:20:33;1.50;;;1.40;;
66425;SDS011;53237;46.158;14.604;2022-08-01T00:23:01;1.70;;;1.60;;
66425;SDS011;53237;46.158;14.604;2022-08-01T00:25:27;2.45;;;1.60;;
66425;SDS011;53237;46.158;14.604;2022-08-01T00:27:53;1.63;;;1.52;;
66425;SDS011;53237;46.158;14.604;2022-08-01T00:30:19;1.67;;;1.58;;
66425;SDS011;53237;46.158;14.604;2022-08-01T00:32:45;1.88;;;1.50;;
66425;SDS011;53237;46.158;14.604;2022-08-01T00:35:11;1.60;;;1.50;;
66425;SDS011;53237;46.158;14.604;2022-08-01T00:37:38;1.58;;;1.40;;
66425;SDS011;53237;46.158;14.604;2022-08-01T00:40:05;3.10;;;1.30;;
66425;SDS011;53237;46.158;14.604;2022-08-01T00:42:31;2.83;;;1.60;;
66425;SDS011;53237;46.158;14.604;2022-08-01T00:44:57;1.63;;;1.52;;
66425;SDS011;53237;46.158;14.604;2022-08-01T00:47:23;1.50;;;1.40;;
66425;SDS011;53237;46.158;14.604;2022-08-01T00:49:49;2.80;;;1.55;;
66425;SDS011;53237;46.158;14.604;2022-08-01T00:52:15;1.63;;;1.52;;
66425;SDS011;53237;46.158;14.604;2022-08-01T00:54:41;1.65;;;1.55;;
66425;SDS011;53237;46.158;14.604;2022-08-01T00:57:08;1.73;;;1.40;;
66425;SDS011;53237;46.158;14.604;2022-08-01T00:59:34;1.45;;;1.35;;
66425;SDS011;53237;46.158;14.604;2022-08-01T01:02:00;1.88;;;1.75;;
66425;SDS011;53237;46.158;14.604;2022-08-01T01:04:26;1.45;;;1.35;;
66425;SDS011;53237;46.158;14.604;2022-08-01T01:07:13;1.67;;;1.58;;
66425;SDS011;53237;46.158;14.604;2022-08-01T01:12:36;1.70;;;1.60;;
66425;SDS011;53237;46.158;14.604;2022-08-01T01:15:08;1.50;;;1.40;;
66425;SDS011;53237;46.158;14.604;2022-08-01T01:20:01;2.28;;;1.40;;
66425;SDS011;53237;46.158;14.604;2022-08-01T01:27:29;1.48;;;1.38;;
66425;SDS011;53237;46.158;14.604;2022-08-01T01:30:01;1.60;;;1.50;;
66425;SDS011;53237;46.158;14.604;2022-08-01T01:32:38;1.70;;;1.50;;
66425;SDS011;53237;46.158;14.604;2022-08-01T01:35:10;1.80;;;1.70;;
66425;SDS011;53237;46.158;14.604;2022-08-01T01:37:38;1.67;;;1.58;;
66425;SDS011;53237;46.158;14.604;2022-08-01T01:40:05;1.50;;;1.40;;
66425;SDS011;53237;46.158;14.604;2022-08-01T01:42:32;1.50;;;1.40;;
66425;SDS011;53237;46.158;14.604;2022-08-01T01:44:58;1.60;;;1.50;;
66425;SDS011;53237;46.158;14.604;2022-08-01T01:47:25;1.50;;;1.40;;
66425;SDS011;53237;46.158;14.604;2022-08-01T01:49:53;1.60;;;1.50;;
66425;SDS011;53237;46.158;14.604;2022-08-01T01:52:20;1.70;;;1.60;;
66425;SDS011;53237;46.158;14.604;2022-08-01T01:54:47;1.65;;;1.55;;
66425;SDS011;53237;46.158;14.604;2022-08-01T01:57:14;1.70;;;1.60;;
66425;SDS011;53237;46.158;14.604;2022-08-01T01:59:40;1.70;;;1.60;;
66425;SDS011;53237;46.158;14.604;2022-08-01T02:02:07;2.58;;;1.83;;
66425;SDS011;53237;46.158;14.604;2022-08-01T02:04:35;2.53;;;1.85;;
66425;SDS011;53237;46.158;14.604;2022-08-01T02:07:02;1.70;;;1.60;;
66425;SDS011;53237;46.158;14.604;2022-08-01T02:09:28;1.77;;;1.67;;
66425;SDS011;53237;46.158;14.604;2022-08-01T02:11:54;1.63;;;1.50;;
66425;SDS011;53237;46.158;14.604;2022-08-01T02:14:21;1.80;;;1.70;;
66425;SDS011;53237;46.158;14.604;2022-08-01T02:16:48;1.45;;;1.38;;
66425;SDS011;53237;46.158;14.604;2022-08-01T02:19:16;1.70;;;1.60;;
66425;SDS011;53237;46.158;14.604;2022-08-01T02:21:47;1.83;;;1.48;;
66425;SDS011;53237;46.158;14.604;2022-08-01T02:24:17;1.90;;;1.80;;
66425;SDS011;53237;46.158;14.604;2022-08-01T02:26:46;2.05;;;1.95;;
66425;SDS011;53237;46.158;14.604;2022-08-01T02:29:14;1.92;;;1.60;;
66425;SDS011;53237;46.158;14.604;2022-08-01T02:31:43;2.15;;;1.52;;
66425;SDS011;53237;46.158;14.604;2022-08-01T02:34:12;1.55;;;1.45;;
66425;SDS011;53237;46.158;14.604;2022-08-01T02:36:39;1.67;;;1.58;;
66425;SDS011;53237;46.158;14.604;2022-08-01T02:39:08;1.80;;;1.70;;
66425;SDS011;53237;46.158;14.604;2022-08-01T02:41:36;1.70;;;1.60;;
66425;SDS011;53237;46.158;14.604;2022-08-01T02:44:04;1.67;;;1.58;;
66425;SDS011;53237;46.158;14.604;2022-08-01T02:46:38;1.77;;;1.67;;
66425;SDS011;53237;46.158;14.604;2022-08-01T02:49:05;1.42;;;1.40;;
66425;SDS011;53237;46.158;14.604;2022-08-01T02:51:32;1.73;;;1.63;;
66425;SDS011;53237;46.158;14.604;2022-08-01T02:53:59;1.60;;;1.50;;
66425;SDS011;53237;46.158;14.604;2022-08-01T02:56:27;2.42;;;1.67;;
66425;SDS011;53237;46.158;14.604;2022-08-01T02:59:00;1.70;;;1.60;;
66425;SDS011;53237;46.158;14.604;2022-08-01T03:01:27;3.40;;;1.92;;
66425;SDS011;53237;46.158;14.604;2022-08-01T03:03:53;1.70;;;1.60;;
66425;SDS011;53237;46.158;14.604;2022-08-01T03:06:19;1.58;;;1.48;;
66425;SDS011;53237;46.158;14.604;2022-08-01T03:08:46;2.55;;;1.70;;
66425;SDS011;53237;46.158;14.604;2022-08-01T03:11:13;1.60;;;1.50;;
66425;SDS011;53237;46.158;14.604;2022-08-01T03:13:41;1.75;;;1.65;;
66425;SDS011;53237;46.158;14.604;2022-08-01T03:16:07;1.55;;;1.42;;
66425;SDS011;53237;46.158;14.604;2022-08-01T03:18:33;1.70;;;1.60;;
66425;SDS011;53237;46.158;14.604;2022-08-01T03:21:01;1.85;;;1.65;;
66425;SDS011;53237;46.158;14.604;2022-08-01T03:23:27;1.70;;;1.60;;
66425;SDS011;53237;46.158;14.604;2022-08-01T03:25:55;1.70;;;1.60;;
66425;SDS011;53237;46.158;14.604;2022-08-01T03:28:22;1.85;;;1.75;;
66425;SDS011;53237;46.158;14.604;2022-08-01T03:30:49;1.70;;;1.60;;
66425;SDS011;53237;46.158;14.604;2022-08-01T03:33:16;1.63;;;1.52;;
66425;SDS011;53237;46.158;14.604;2022-08-01T03:35:49;2.05;;;1.85;;
66425;SDS011;53237;46.158;14.604;2022-08-01T03:38:19;1.70;;;1.60;;
66425;SDS011;53237;46.158;14.604;2022-08-01T03:40:55;1.65;;;1.55;;
66425;SDS011;53237;46.158;14.604;2022-08-01T03:43:25;1.80;;;1.67;;
66425;SDS011;53237;46.158;14.604;2022-08-01T03:45:52;3.45;;;2.53;;
66425;SDS011;53237;46.158;14.604;2022-08-01T03:48:19;1.95;;;1.77;;
66425;SDS011;53237;46.158;14.604;2022-08-01T03:50:49;2.75;;;1.60;;
66425;SDS011;53237;46.158;14.604;2022-08-01T03:53:15;1.80;;;1.70;;
66425;SDS011;53237;46.158;14.604;2022-08-01T03:55:46;1.80;;;1.70;;
66425;SDS011;53237;46.158;14.604;2022-08-01T03:58:12;1.40;;;1.30;;
66425;SDS011;53237;46.158;14.604;2022-08-01T04:00:38;1.90;;;1.80;;
66425;SDS011;53237;46.158;14.604;2022-08-01T04:03:06;2.42;;;1.85;;
66425;SDS011;53237;46.158;14.604;2022-08-01T04:05:33;1.70;;;1.60;;
66425;SDS011;53237;46.158;14.604;2022-08-01T04:07:59;1.75;;;1.65;;
66425;SDS011;53237;46.158;14.604;2022-08-01T04:10:27;2.60;;;1.83;;
66425;SDS011;53237;46.158;14.604;2022-08-01T04:12:53;1.85;;;1.70;;
66425;SDS011;53237;46.158;14.604;2022-08-01T04:15:19;1.75;;;1.65;;
66425;SDS011;53237;46.158;14.604;2022-08-01T04:17:45;1.83;;;1.70;;
66425;SDS011;53237;46.158;14.604;2022-08-01T04:20:11;1.70;;;1.60;;
66425;SDS011;53237;46.158;14.604;2022-08-01T04:22:38;2.00;;;1.58;;
66425;SDS011;53237;46.158;14.604;2022-08-01T04:25:04;2.50;;;1.73;;
66425;SDS011;53237;46.158;14.604;2022-08-01T04:27:35;1.65;;;1.55;;
66425;SDS011;53237;46.158;14.604;2022-08-01T04:30:02;2.75;;;1.83;;
66425;SDS011;53237;46.158;14.604;2022-08-01T04:32:29;1.80;;;1.60;;
66425;SDS011;53237;46.158;14.604;2022-08-01T04:34:57;1.70;;;1.60;;
66425;SDS011;53237;46.158;14.604;2022-08-01T04:37:25;1.88;;;1.63;;
66425;SDS011;53237;46.158;14.604;2022-08-01T04:39:52;1.80;;;1.70;;
66425;SDS011;53237;46.158;14.604;2022-08-01T04:42:18;1.85;;;1.75;;
66425;SDS011;53237;46.158;14.604;2022-08-01T04:44:44;4.32;;;2.72;;
66425;SDS011;53237;46.158;14.604;2022-08-01T04:47:10;3.47;;;2.03;;
66425;SDS011;53237;46.158;14.604;2022-08-01T04:49:37;2.47;;;1.73;;
66425;SDS011;53237;46.158;14.604;2022-08-01T04:52:04;2.75;;;2.00;;
66425;SDS011;53237;46.158;14.604;2022-08-01T04:54:32;2.30;;;2.10;;
66425;SDS011;53237;46.158;14.604;2022-08-01T04:57:02;2.65;;;2.08;;
66425;SDS011;53237;46.158;14.604;2022-08-01T04:59:31;4.10;;;2.22;;
66425;SDS011;53237;46.158;14.604;2022-08-01T05:02:14;3.88;;;2.20;;
66425;SDS011;53237;46.158;14.604;2022-08-01T05:04:41;2.30;;;1.83;;
66425;SDS011;53237;46.158;14.604;2022-08-01T05:07:07;2.80;;;2.22;;
66425;SDS011;53237;46.158;14.604;2022-08-01T05:09:33;3.67;;;1.75;;
66425;SDS011;53237;46.158;14.604;2022-08-01T05:12:00;2.33;;;2.13;;
66425;SDS011;53237;46.158;14.604;2022-08-01T05:14:27;3.22;;;1.92;;
66425;SDS011;53237;46.158;14.604;2022-08-01T05:16:54;2.10;;;1.88;;
66425;SDS011;53237;46.158;14.604;2022-08-01T05:19:21;5.22;;;1.88;;
66425;SDS011;53237;46.158;14.604;2022-08-01T05:21:47;3.35;;;2.10;;
66425;SDS011;53237;46.158;14.604;2022-08-01T05:24:13;1.88;;;1.73;;
66425;SDS011;53237;46.158;14.604;2022-08-01T05:26:39;2.13;;;2.00;;
66425;SDS011;53237;46.158;14.604;2022-08-01T05:29:05;3.03;;;2.40;;
66425;SDS011;53237;46.158;14.604;2022-08-01T05:31:31;2.25;;;2.05;;
66425;SDS011;53237;46.158;14.604;2022-08-01T05:33:59;7.50;;;2.40;;
66425;SDS011;53237;46.158;14.604;2022-08-01T05:36:25;2.50;;;1.98;;
66425;SDS011;53237;46.158;14.604;2022-08-01T05:38:52;3.75;;;2.47;;
66425;SDS011;53237;46.158;14.604;2022-08-01T05:41:17;4.30;;;2.03;;
66425;SDS011;53237;46.158;14.604;2022-08-01T05:43:43;3.67;;;2.83;;
66425;SDS011;53237;46.158;14.604;2022-08-01T05:46:09;3.17;;;2.08;;
66425;SDS011;53237;46.158;14.604;2022-08-01T05:48:35;4.50;;;2.42;;
66425;SDS011;53237;46.158;14.604;2022-08-01T05:51:02;2.95;;;2.50;;
66425;SDS011;53237;46.158;14.604;2022-08-01T05:53:28;3.53;;;2.00;;
66425;SDS011;53237;46.158;14.604;2022-08-01T05:55:54;4.05;;;3.17;;
66425;SDS011;53237;46.158;14.604;2022-08-01T05:58:21;5.65;;;3.70;;
66425;SDS011;53237;46.158;14.604;2022-08-01T06:00:47;4.85;;;2.30;;
66425;SDS011;53237;46.158;14.604;2022-08-01T06:03:13;2.67;;;2.42;;
66425;SDS011;53237;46.158;14.604;2022-08-01T06:05:39;3.35;;;2.17;;
66425;SDS011;53237;46.158;14.604;2022-08-01T06:08:05;4.65;;;2.30;;
66425;SDS011;53237;46.158;14.604;2022-08-01T06:10:31;3.83;;;3.00;;
66425;SDS011;53237;46.158;14.604;2022-08-01T06:12:57;4.75;;;2.47;;
66425;SDS011;53237;46.158;14.604;2022-08-01T06:15:27;4.15;;;2.47;;
66425;SDS011;53237;46.158;14.604;2022-08-01T06:17:54;3.42;;;2.33;;
66425;SDS011;53237;46.158;14.604;2022-08-01T06:20:20;3.10;;;1.95;;
66425;SDS011;53237;46.158;14.604;2022-08-01T06:22:46;3.20;;;2.67;;
66425;SDS011;53237;46.158;14.604;2022-08-01T06:25:12;4.50;;;2.97;;
66425;SDS011;53237;46.158;14.604;2022-08-01T06:27:38;4.22;;;2.90;;
66425;SDS011;53237;46.158;14.604;2022-08-01T06:30:04;2.35;;;2.15;;
66425;SDS011;53237;46.158;14.604;2022-08-01T06:32:32;3.65;;;2.78;;
66425;SDS011;53237;46.158;14.604;2022-08-01T06:34:58;5.28;;;2.50;;
66425;SDS011;53237;46.158;14.604;2022-08-01T06:37:28;2.97;;;2.78;;
66425;SDS011;53237;46.158;14.604;2022-08-01T06:39:54;3.72;;;2.67;;
66425;SDS011;53237;46.158;14.604;2022-08-01T06:42:20;3.72;;;2.33;;
66425;SDS011;53237;46.158;14.604;2022-08-01T06:44:46;4.55;;;2.13;;
66425;SDS011;53237;46.158;14.604;2022-08-01T06:47:12;3.17;;;2.00;;
66425;SDS011;53237;46.158;14.604;2022-08-01T06:49:38;2.50;;;2.30;;
66425;SDS011;53237;46.158;14.604;2022-08-01T06:52:04;4.10;;;2.97;;
66425;SDS011;53237;46.158;14.604;2022-08-01T06:54:30;3.30;;;3.00;;
66425;SDS011;53237;46.158;14.604;2022-08-01T06:56:56;4.18;;;3.47;;
66425;SDS011;53237;46.158;14.604;2022-08-01T06:59:22;5.28;;;3.33;;
66425;SDS011;53237;46.158;14.604;2022-08-01T07:01:48;2.95;;;2.75;;
66425;SDS011;53237;46.158;14.604;2022-08-01T07:04:14;3.72;;;3.25;;
66425;SDS011;53237;46.158;14.604;2022-08-01T07:06:40;6.32;;;4.13;;
66425;SDS011;53237;46.158;14.604;2022-08-01T07:09:06;3.00;;;2.70;;
66425;SDS011;53237;46.158;14.604;2022-08-01T07:11:32;3.47;;;3.17;;
66425;SDS011;53237;46.158;14.604;2022-08-01T07:13:58;3.97;;;2.70;;
66425;SDS011;53237;46.158;14.604;2022-08-01T07:16:25;4.82;;;3.67;;
66425;SDS011;53237;46.158;14.604;2022-08-01T07:18:51;3.05;;;2.70;;
66425;SDS011;53237;46.158;14.604;2022-08-01T07:21:17;2.72;;;2.53;;
66425;SDS011;53237;46.158;14.604;2022-08-01T07:23:43;3.28;;;2.33;;
66425;SDS011;53237;46.158;14.604;2022-08-01T07:26:09;4.55;;;2.60;;
66425;SDS011;53237;46.158;14.604;2022-08-01T07:28:35;3.55;;;2.60;;
66425;SDS011;53237;46.158;14.604;2022-08-01T07:31:01;4.90;;;3.03;;
66425;SDS011;53237;46.158;14.604;2022-08-01T07:33:27;3.58;;;3.17;;
66425;SDS011;53237;46.158;14.604;2022-08-01T07:35:53;2.92;;;2.30;;
66425;SDS011;53237;46.158;14.604;2022-08-01T07:38:19;2.20;;;2.00;;
66425;SDS011;53237;46.158;14.604;2022-08-01T07:40:45;2.88;;;2.25;;
66425;SDS011;53237;46.158;14.604;2022-08-01T07:43:11;3.45;;;2.08;;
66425;SDS011;53237;46.158;14.604;2022-08-01T07:45:37;2.40;;;2.20;;
66425;SDS011;53237;46.158;14.604;2022-08-01T07:48:03;2.88;;;2.58;;
66425;SDS011;53237;46.158;14.604;2022-08-01T07:50:29;4.00;;;2.50;;
66425;SDS011;53237;46.158;14.604;2022-08-01T07:52:56;3.47;;;2.42;;
66425;SDS011;53237;46.158;14.604;2022-08-01T07:55:22;3.42;;;2.92;;
66425;SDS011;53237;46.158;14.604;2022-08-01T07:57:48;2.47;;;2.28;;
66425;SDS011;53237;46.158;14.604;2022-08-01T08:00:14;3.78;;;2.78;;
66425;SDS011;53237;46.158;14.604;2022-08-01T08:02:40;4.60;;;4.13;;
66425;SDS011;53237;46.158;14.604;2022-08-01T08:05:06;4.95;;;3.42;;
66425;SDS011;53237;46.158;14.604;2022-08-01T08:07:32;3.10;;;2.80;;
66425;SDS011;53237;46.158;14.604;2022-08-01T08:09:59;4.32;;;2.50;;
66425;SDS011;53237;46.158;14.604;2022-08-01T08:12:25;3.53;;;2.85;;
66425;SDS011;53237;46.158;14.604;2022-08-01T08:14:51;5.43;;;3.58;;
66425;SDS011;53237;46.158;14.604;2022-08-01T08:17:17;2.97;;;2.78;;
66425;SDS011;53237;46.158;14.604;2022-08-01T08:19:43;4.35;;;2.95;;
66425;SDS011;53237;46.158;14.604;2022-08-01T08:22:09;9.25;;;3.55;;
66425;SDS011;53237;46.158;14.604;2022-08-01T08:24:35;2.97;;;2.63;;
66425;SDS011;53237;46.158;14.604;2022-08-01T08:27:02;4.20;;;2.80;;
66425;SDS011;53237;46.158;14.604;2022-08-01T08:29:29;2.20;;;2.00;;
66425;SDS011;53237;46.158;14.604;2022-08-01T08:31:57;2.67;;;2.47;;
66425;SDS011;53237;46.158;14.604;2022-08-01T08:34:23;6.32;;;3.25;;
66425;SDS011;53237;46.158;14.604;2022-08-01T08:36:50;5.38;;;2.88;;
66425;SDS011;53237;46.158;14.604;2022-08-01T08:39:16;5.82;;;3.45;;
66425;SDS011;53237;46.158;14.604;2022-08-01T08:41:42;3.67;;;3.00;;
66425;SDS011;53237;46.158;14.604;2022-08-01T08:44:08;3.80;;;3.00;;
66425;SDS011;53237;46.158;14.604;2022-08-01T08:46:38;2.30;;;2.10;;
66425;SDS011;53237;46.158;14.604;2022-08-01T08:49:06;2.20;;;2.00;;
66425;SDS011;53237;46.158;14.604;2022-08-01T08:51:34;5.18;;;2.83;;
66425;SDS011;53237;46.158;14.604;2022-08-01T08:54:00;2.30;;;2.10;;
66425;SDS011;53237;46.158;14.604;2022-08-01T08:56:28;3.13;;;2.83;;
66425;SDS011;53237;46.158;14.604;2022-08-01T08:58:58;2.10;;;1.90;;
66425;SDS011;53237;46.158;14.604;2022-08-01T09:01:24;2.80;;;2.45;;
66425;SDS011;53237;46.158;14.604;2022-08-01T09:03:51;2.72;;;2.40;;
66425;SDS011;53237;46.158;14.604;2022-08-01T09:06:17;3.78;;;2.70;;
66425;SDS011;53237;46.158;14.604;2022-08-01T09:08:43;2.35;;;1.92;;
66425;SDS011;53237;46.158;14.604;2022-08-01T09:11:09;2.47;;;2.28;;
66425;SDS011;53237;46.158;14.604;2022-08-01T09:13:35;4.07;;;2.42;;
66425;SDS011;53237;46.158;14.604;2022-08-01T09:16:01;4.20;;;1.98;;
66425;SDS011;53237;46.158;14.604;2022-08-01T09:18:34;2.88;;;1.88;;
66425;SDS011;53237;46.158;14.604;2022-08-01T09:23:37;2.30;;;2.10;;
66425;SDS011;53237;46.158;14.604;2022-08-01T09:26:14;1.65;;;1.55;;
66425;SDS011;53237;46.158;14.604;2022-08-01T09:28:41;1.73;;;1.63;;
66425;SDS011;53237;46.158;14.604;2022-08-01T09:31:10;3.65;;;2.20;;
66425;SDS011;53237;46.158;14.604;2022-08-01T09:36:14;1.85;;;1.70;;
66425;SDS011;53237;46.158;14.604;2022-08-01T09:38:40;1.90;;;1.70;;
66425;SDS011;53237;46.158;14.604;2022-08-01T09:41:07;2.55;;;1.58;;
66425;SDS011;53237;46.158;14.604;2022-08-01T09:43:33;1.90;;;1.80;;
66425;SDS011;53237;46.158;14.604;2022-08-01T09:45:59;1.80;;;1.70;;
66425;SDS011;53237;46.158;14.604;2022-08-01T09:48:29;2.72;;;1.77;;
66425;SDS011;53237;46.158;14.604;2022-08-01T09:50:58;1.90;;;1.60;;
66425;SDS011;53237;46.158;14.604;2022-08-01T09:53:24;3.53;;;1.88;;
66425;SDS011;53237;46.158;14.604;2022-08-01T09:55:50;1.83;;;1.52;;
66425;SDS011;53237;46.158;14.604;2022-08-01T09:58:19;2.30;;;1.63;;
66425;SDS011;53237;46.158;14.604;2022-08-01T10:00:46;4.00;;;1.70;;
66425;SDS011;53237;46.158;14.604;2022-08-01T10:03:24;1.60;;;1.50;;
66425;SDS011;53237;46.158;14.604;2022-08-01T10:05:50;1.50;;;1.40;;
66425;SDS011;53237;46.158;14.604;2022-08-01T10:08:18;1.70;;;1.40;;
66425;SDS011;53237;46.158;14.604;2022-08-01T10:13:29;1.77;;;1.35;;
66425;SDS011;53237;46.158;14.604;2022-08-01T10:15:55;2.83;;;1.73;;
66425;SDS011;53237;46.158;14.604;2022-08-01T10:18:21;1.55;;;1.30;;
66425;SDS011;53237;46.158;14.604;2022-08-01T10:20:47;3.00;;;1.38;;
66425;SDS011;53237;46.158;14.604;2022-08-01T10:23:13;1.48;;;1.38;;
66425;SDS011;53237;46.158;14.604;2022-08-01T10:25:41;9.48;;;1.60;;
66425;SDS011;53237;46.158;14.604;2022-08-01T10:28:17;2.03;;;1.80;;
66425;SDS011;53237;46.158;14.604;2022-08-01T10:30:45;1.92;;;1.42;;
66425;SDS011;53237;46.158;14.604;2022-08-01T10:33:11;1.20;;;1.10;;
66425;SDS011;53237;46.158;14.604;2022-08-01T10:35:38;1.67;;;1.50;;
66425;SDS011;53237;46.158;14.604;2022-08-01T10:38:05;1.42;;;1.25;;
66425;SDS011;53237;46.158;14.604;2022-08-01T10:40:31;2.58;;;1.20;;
66425;SDS011;53237;46.158;14.604;2022-08-01T10:42:57;1.85;;;1.48;;
66425;SDS011;53237;46.158;14.604;2022-08-01T10:45:24;1.40;;;1.30;;
66425;SDS011;53237;46.158;14.604;2022-08-01T10:48:14;2.35;;;1.63;;
66425;SDS011;53237;46.158;14.604;2022-08-01T10:50:42;1.40;;;1.30;;
66425;SDS011;53237;46.158;14.604;2022-08-01T10:58:34;1.20;;;1.10;;
66425;SDS011;53237;46.158;14.604;2022-08-01T11:03:41;1.13;;;1.00;;
66425;SDS011;53237;46.158;14.604;2022-08-01T11:06:07;1.13;;;1.00;;
66425;SDS011;53237;46.158;14.604;2022-08-01T11:08:40;2.13;;;1.17;;
66425;SDS011;53237;46.158;14.604;2022-08-01T11:11:07;1.67;;;1.30;;
66425;SDS011;53237;46.158;14.604;2022-08-01T11:16:26;1.05;;;1.02;;
66425;SDS011;53237;46.158;14.604;2022-08-01T11:18:52;1.10;;;1.00;;
66425;SDS011;53237;46.158;14.604;2022-08-01T11:21:18;2.88;;;1.33;;
66425;SDS011;53237;46.158;14.604;2022-08-01T11:23:48;1.20;;;1.13;;
66425;SDS011;53237;46.158;14.604;2022-08-01T11:26:15;1.05;;;1.05;;
66425;SDS011;53237;46.158;14.604;2022-08-01T11:28:41;1.50;;;1.40;;
66425;SDS011;53237;46.158;14.604;2022-08-01T11:38:41;1.67;;;1.50;;
66425;SDS011;53237;46.158;14.604;2022-08-01T11:43:58;1.25;;;1.20;;
66425;SDS011;53237;46.158;14.604;2022-08-01T11:52:09;2.40;;;1.10;;
66425;SDS011;53237;46.158;14.604;2022-08-01T11:54:37;3.13;;;1.30;;
66425;SDS011;53237;46.158;14.604;2022-08-01T11:57:04;1.30;;;1.20;;
66425;SDS011;53237;46.158;14.604;2022-08-01T11:59:37;2.13;;;1.20;;
66425;SDS011;53237;46.158;14.604;2022-08-01T12:02:04;2.40;;;1.27;;
66425;SDS011;53237;46.158;14.604;2022-08-01T12:04:44;1.73;;;1.20;;
66425;SDS011;53237;46.158;14.604;2022-08-01T12:07:13;1.48;;;1.20;;
66425;SDS011;53237;46.158;14.604;2022-08-01T12:09:40;2.23;;;1.20;;
66425;SDS011;53237;46.158;14.604;2022-08-01T12:12:06;3.70;;;1.48;;
66425;SDS011;53237;46.158;14.604;2022-08-01T12:14:32;1.23;;;1.10;;
66425;SDS011;53237;46.158;14.604;2022-08-01T12:16:59;2.90;;;1.30;;
66425;SDS011;53237;46.158;14.604;2022-08-01T12:19:25;1.10;;;1.10;;
66425;SDS011;53237;46.158;14.604;2022-08-01T12:22:13;4.90;;;1.60;;
66425;SDS011;53237;46.158;14.604;2022-08-01T12:24:38;1.58;;;1.25;;
66425;SDS011;53237;46.158;14.604;2022-08-01T12:27:04;2.80;;;1.20;;
66425;SDS011;53237;46.158;14.604;2022-08-01T12:29:35;1.33;;;1.23;;
66425;SDS011;53237;46.158;14.604;2022-08-01T12:32:01;1.27;;;1.17;;
66425;SDS011;53237;46.158;14.604;2022-08-01T12:34:27;1.23;;;1.13;;
66425;SDS011;53237;46.158;14.604;2022-08-01T12:36:57;2.67;;;1.20;;
66425;SDS011;53237;46.158;14.604;2022-08-01T12:39:31;1.02;;;1.02;;
66425;SDS011;53237;46.158;14.604;2022-08-01T12:41:58;1.20;;;1.10;;
66425;SDS011;53237;46.158;14.604;2022-08-01T12:44:24;2.60;;;1.40;;
66425;SDS011;53237;46.158;14.604;2022-08-01T12:46:50;1.50;;;1.30;;
66425;SDS011;53237;46.158;14.604;2022-08-01T12:49:16;1.00;;;1.00;;
66425;SDS011;53237;46.158;14.604;2022-08-01T12:51:43;2.78;;;1.33;;
66425;SDS011;53237;46.158;14.604;2022-08-01T12:54:09;1.25;;;1.15;;
66425;SDS011;53237;46.158;14.604;2022-08-01T12:56:35;1.52;;;1.17;;
66425;SDS011;53237;46.158;14.604;2022-08-01T12:59:01;2.28;;;1.40;;
66425;SDS011;53237;46.158;14.604;2022-08-01T13:01:27;2.10;;;1.20;;
66425;SDS011;53237;46.158;14.604;2022-08-01T13:03:59;2.15;;;1.48;;
66425;SDS011;53237;46.158;14.604;2022-08-01T13:06:27;1.33;;;1.23;;
66425;SDS011;53237;46.158;14.604;2022-08-01T13:08:54;1.58;;;1.10;;
66425;SDS011;53237;46.158;14.604;2022-08-01T13:11:20;1.42;;;1.15;;
66425;SDS011;53237;46.158;14.604;2022-08-01T13:16:12;1.73;;;1.40;;
66425;SDS011;53237;46.158;14.604;2022-08-01T13:18:38;1.33;;;1.10;;
66425;SDS011;53237;46.158;14.604;2022-08-01T13:21:15;1.10;;;1.00;;
66425;SDS011;53237;46.158;14.604;2022-08-01T13:23:41;1.30;;;1.20;;
66425;SDS011;53237;46.158;14.604;2022-08-01T13:26:07;1.45;;;1.23;;
66425;SDS011;53237;46.158;14.604;2022-08-01T13:28:33;1.10;;;1.10;;
66425;SDS011;53237;46.158;14.604;2022-08-01T13:31:07;1.15;;;1.10;;
66425;SDS011;53237;46.158;14.604;2022-08-01T13:33:45;1.30;;;1.20;;
66425;SDS011;53237;46.158;14.604;2022-08-01T13:36:12;1.10;;;1.10;;
66425;SDS011;53237;46.158;14.604;2022-08-01T13:38:38;0.82;;;0.82;;
66425;SDS011;53237;46.158;14.604;2022-08-01T13:41:23;1.00;;;0.90;;
66425;SDS011;53237;46.158;14.604;2022-08-01T13:43:49;0.95;;;0.95;;
66425;SDS011;53237;46.158;14.604;2022-08-01T13:46:15;0.80;;;0.80;;
66425;SDS011;53237;46.158;14.604;2022-08-01T13:48:41;2.08;;;1.00;;
66425;SDS011;53237;46.158;14.604;2022-08-01T13:51:08;2.55;;;0.90;;
66425;SDS011;53237;46.158;14.604;2022-08-01T13:53:34;0.80;;;0.80;;
66425;SDS011;53237;46.158;14.604;2022-08-01T13:56:00;0.93;;;0.93;;
66425;SDS011;53237;46.158;14.604;2022-08-01T13:58:26;1.25;;;1.10;;
66425;SDS011;53237;46.158;14.604;2022-08-01T14:00:53;0.90;;;0.90;;
66425;SDS011;53237;46.158;14.604;2022-08-01T14:03:20;1.13;;;1.02;;
66425;SDS011;53237;46.158;14.604;2022-08-01T14:05:46;0.90;;;0.90;;
66425;SDS011;53237;46.158;14.604;2022-08-01T14:08:12;0.70;;;0.70;;
66425;SDS011;53237;46.158;14.604;2022-08-01T14:10:38;1.02;;;0.80;;
66425;SDS011;53237;46.158;14.604;2022-08-01T14:13:04;1.02;;;0.98;;
66425;SDS011;53237;46.158;14.604;2022-08-01T14:15:30;1.33;;;1.20;;
66425;SDS011;53237;46.158;14.604;2022-08-01T14:17:57;0.98;;;0.90;;
66425;SDS011;53237;46.158;14.604;2022-08-01T14:20:24;0.90;;;0.90;;
66425;SDS011;53237;46.158;14.604;2022-08-01T14:22:50;0.93;;;0.93;;
66425;SDS011;53237;46.158;14.604;2022-08-01T14:25:16;1.00;;;0.90;;
66425;SDS011;53237;46.158;14.604;2022-08-01T14:27:43;0.98;;;0.80;;
66425;SDS011;53237;46.158;14.604;2022-08-01T14:30:09;1.10;;;1.00;;
66425;SDS011;53237;46.158;14.604;2022-08-01T14:32:36;1.92;;;0.88;;
66425;SDS011;53237;46.158;14.604;2022-08-01T14:35:02;1.27;;;0.90;;
66425;SDS011;53237;46.158;14.604;2022-08-01T14:37:29;1.00;;;0.90;;
66425;SDS011;53237;46.158;14.604;2022-08-01T14:39:55;1.33;;;1.00;;
66425;SDS011;53237;46.158;14.604;2022-08-01T14:42:21;0.98;;;0.98;;
66425;SDS011;53237;46.158;14.604;2022-08-01T14:44:47;1.00;;;0.90;;
66425;SDS011;53237;46.158;14.604;2022-08-01T14:47:13;2.15;;;0.60;;
66425;SDS011;53237;46.158;14.604;2022-08-01T14:49:39;0.80;;;0.80;;
66425;SDS011;53237;46.158;14.604;2022-08-01T14:52:05;0.90;;;0.90;;
66425;SDS011;53237;46.158;14.604;2022-08-01T14:54:31;1.00;;;0.90;;
66425;SDS011;53237;46.158;14.604;2022-08-01T14:56:57;1.40;;;1.13;;
66425;SDS011;53237;46.158;14.604;2022-08-01T14:59:23;1.83;;;1.10;;
66425;SDS011;53237;46.158;14.604;2022-08-01T15:01:50;0.90;;;0.90;;
66425;SDS011;53237;46.158;14.604;2022-08-01T15:04:16;0.93;;;0.90;;
66425;SDS011;53237;46.158;14.604;2022-08-01T15:06:42;1.35;;;1.20;;
66425;SDS011;53237;46.158;14.604;2022-08-01T15:09:08;0.80;;;0.80;;
66425;SDS011;53237;46.158;14.604;2022-08-01T15:11:34;1.00;;;0.90;;
66425;SDS011;53237;46.158;14.604;2022-08-01T15:14:00;1.10;;;1.00;;
66425;SDS011;53237;46.158;14.604;2022-08-01T15:16:45;1.10;;;1.00;;
66425;SDS011;53237;46.158;14.604;2022-08-01T15:19:11;1.30;;;1.20;;
66425;SDS011;53237;46.158;14.604;2022-08-01T15:21:37;2.17;;;1.00;;